sensor_id;sensor_type;location;lat;lon;timestamp;P1;durP1;ratioP1;P2;durP2;ratioP2
11039;SDS011;5573;49.592;8.662;2023-05-28T00:00:59;226.40;;;214.05;;
11039;SDS011;5573;49.592;8.662;2023-05-28T00:03:30;224.05;;;211.80;;
11039;SDS011;5573;49.592;8.662;2023-05-28T00:05:59;241.35;;;228.02;;
11039;SDS011;5573;49.592;8.662;2023-05-28T00:08:27;238.02;;;225.27;;
11039;SDS011;5573;49.592;8.662;2023-05-28T00:10:56;232.65;;;219.95;;
11039;SDS011;5573;49.592;8.662;2023-05-28T00:13:27;228.35;;;215.80;;
11039;SDS011;5573;49.592;8.662;2023-05-28T00:15:56;222.88;;;210.90;;
11039;SDS011;5573;49.592;8.662;2023-05-28T00:18:25;224.27;;;211.85;;
11039;SDS011;5573;49.592;8.662;2023-05-28T00:20:55;244.45;;;231.00;;
11039;SDS011;5573;49.592;8.662;2023-05-28T00:23:24;221.63;;;209.57;;
11039;SDS011;5573;49.592;8.662;2023-05-28T00:25:52;247.52;;;234.05;;
11039;SDS011;5573;49.592;8.662;2023-05-28T00:28:22;239.15;;;226.20;;
11039;SDS011;5573;49.592;8.662;2023-05-28T00:30:50;230.48;;;217.73;;
11039;SDS011;5573;49.592;8.662;2023-05-28T00:33:18;244.57;;;231.02;;
11039;SDS011;5573;49.592;8.662;2023-05-28T00:35:45;231.85;;;219.52;;
11039;SDS011;5573;49.592;8.662;2023-05-28T00:38:13;226.93;;;214.63;;
11039;SDS011;5573;49.592;8.662;2023-05-28T00:40:43;240.98;;;227.60;;
11039;SDS011;5573;49.592;8.662;2023-05-28T00:43:11;241.48;;;228.10;;
11039;SDS011;5573;49.592;8.662;2023-05-28T00:45:40;238.07;;;224.68;;
11039;SDS011;5573;49.592;8.662;2023-05-28T00:48:08;232.98;;;220.13;;
11039;SDS011;5573;49.592;8.662;2023-05-28T00:50:37;230.18;;;217.63;;
11039;SDS011;5573;49.592;8.662;2023-05-28T00:53:06;231.90;;;219.27;;
11039;SDS011;5573;49.592;8.662;2023-05-28T00:55:35;229.00;;;216.70;;
11039;SDS011;5573;49.592;8.662;2023-05-28T00:58:03;249.63;;;236.10;;
11039;SDS011;5573;49.592;8.662;2023-05-28T01:00:32;224.43;;;211.85;;
11039;SDS011;5573;49.592;8.662;2023-05-28T01:03:02;224.50;;;212.27;;
11039;SDS011;5573;49.592;8.662;2023-05-28T01:05:30;226.52;;;214.00;;
11039;SDS011;5573;49.592;8.662;2023-05-28T01:07:58;241.98;;;228.68;;
11039;SDS011;5573;49.592;8.662;2023-05-28T01:10:27;244.80;;;231.32;;
11039;SDS011;5573;49.592;8.662;2023-05-28T01:12:56;235.85;;;222.57;;
11039;SDS011;5573;49.592;8.662;2023-05-28T01:15:26;243.13;;;229.70;;
11039;SDS011;5573;49.592;8.662;2023-05-28T01:17:55;228.38;;;215.68;;
11039;SDS011;5573;49.592;8.662;2023-05-28T01:20:26;224.48;;;212.07;;
11039;SDS011;5573;49.592;8.662;2023-05-28T01:22:58;237.02;;;224.43;;
11039;SDS011;5573;49.592;8.662;2023-05-28T01:25:30;243.18;;;229.48;;
11039;SDS011;5573;49.592;8.662;2023-05-28T01:27:58;223.65;;;211.27;;
11039;SDS011;5573;49.592;8.662;2023-05-28T01:30:28;249.40;;;235.75;;
11039;SDS011;5573;49.592;8.662;2023-05-28T01:32:59;250.65;;;236.88;;
11039;SDS011;5573;49.592;8.662;2023-05-28T01:35:27;229.57;;;217.20;;
11039;SDS011;5573;49.592;8.662;2023-05-28T01:37:55;231.35;;;218.82;;
11039;SDS011;5573;49.592;8.662;2023-05-28T01:40:26;233.90;;;220.95;;
11039;SDS011;5573;49.592;8.662;2023-05-28T01:42:57;251.57;;;237.93;;
11039;SDS011;5573;49.592;8.662;2023-05-28T01:45:26;233.55;;;220.77;;
11039;SDS011;5573;49.592;8.662;2023-05-28T01:47:54;239.35;;;226.40;;
11039;SDS011;5573;49.592;8.662;2023-05-28T01:50:23;227.43;;;215.13;;
11039;SDS011;5573;49.592;8.662;2023-05-28T01:52:52;251.85;;;237.90;;
11039;SDS011;5573;49.592;8.662;2023-05-28T01:55:21;249.90;;;236.30;;
11039;SDS011;5573;49.592;8.662;2023-05-28T01:57:51;243.05;;;229.55;;
11039;SDS011;5573;49.592;8.662;2023-05-28T02:00:21;250.75;;;237.00;;
11039;SDS011;5573;49.592;8.662;2023-05-28T02:02:52;235.68;;;222.90;;
11039;SDS011;5573;49.592;8.662;2023-05-28T02:05:20;234.27;;;221.60;;
11039;SDS011;5573;49.592;8.662;2023-05-28T02:07:48;233.48;;;220.75;;
11039;SDS011;5573;49.592;8.662;2023-05-28T02:10:16;225.27;;;212.75;;
11039;SDS011;5573;49.592;8.662;2023-05-28T02:12:44;232.30;;;219.25;;
11039;SDS011;5573;49.592;8.662;2023-05-28T02:15:12;228.60;;;215.98;;
11039;SDS011;5573;49.592;8.662;2023-05-28T02:17:43;223.65;;;211.35;;
11039;SDS011;5573;49.592;8.662;2023-05-28T02:20:12;224.10;;;211.65;;
11039;SDS011;5573;49.592;8.662;2023-05-28T02:22:40;226.65;;;213.90;;
11039;SDS011;5573;49.592;8.662;2023-05-28T02:25:08;243.38;;;229.57;;
11039;SDS011;5573;49.592;8.662;2023-05-28T02:27:37;241.13;;;228.05;;
11039;SDS011;5573;49.592;8.662;2023-05-28T02:30:06;229.90;;;217.35;;
11039;SDS011;5573;49.592;8.662;2023-05-28T02:32:37;228.15;;;215.55;;
11039;SDS011;5573;49.592;8.662;2023-05-28T02:35:07;222.85;;;210.48;;
11039;SDS011;5573;49.592;8.662;2023-05-28T02:37:36;139.18;;;131.30;;
11039;SDS011;5573;49.592;8.662;2023-05-28T02:40:04;187.98;;;177.27;;
11039;SDS011;5573;49.592;8.662;2023-05-28T02:42:33;234.13;;;221.63;;
11039;SDS011;5573;49.592;8.662;2023-05-28T02:45:01;260.33;;;245.85;;
11039;SDS011;5573;49.592;8.662;2023-05-28T02:47:30;277.77;;;263.00;;
11039;SDS011;5573;49.592;8.662;2023-05-28T02:49:59;278.75;;;263.85;;
11039;SDS011;5573;49.592;8.662;2023-05-28T02:52:36;137.52;;;129.70;;
11039;SDS011;5573;49.592;8.662;2023-05-28T02:55:05;134.30;;;126.50;;
11039;SDS011;5573;49.592;8.662;2023-05-28T02:57:35;152.30;;;143.35;;
11039;SDS011;5573;49.592;8.662;2023-05-28T03:00:05;150.98;;;142.45;;
11039;SDS011;5573;49.592;8.662;2023-05-28T03:02:36;154.27;;;145.45;;
11039;SDS011;5573;49.592;8.662;2023-05-28T03:05:05;147.68;;;139.18;;
11039;SDS011;5573;49.592;8.662;2023-05-28T03:07:35;149.57;;;141.10;;
11039;SDS011;5573;49.592;8.662;2023-05-28T03:10:04;102.15;;;96.47;;
11039;SDS011;5573;49.592;8.662;2023-05-28T03:12:33;77.05;;;72.45;;
11039;SDS011;5573;49.592;8.662;2023-05-28T03:15:02;90.00;;;84.97;;
11039;SDS011;5573;49.592;8.662;2023-05-28T03:17:32;78.15;;;73.80;;
11039;SDS011;5573;49.592;8.662;2023-05-28T03:20:00;65.30;;;61.78;;
11039;SDS011;5573;49.592;8.662;2023-05-28T03:22:29;81.28;;;76.75;;
11039;SDS011;5573;49.592;8.662;2023-05-28T03:24:59;83.82;;;79.25;;
11039;SDS011;5573;49.592;8.662;2023-05-28T03:27:27;83.13;;;78.47;;
11039;SDS011;5573;49.592;8.662;2023-05-28T03:29:56;66.93;;;63.13;;
11039;SDS011;5573;49.592;8.662;2023-05-28T03:32:48;64.97;;;61.40;;
11039;SDS011;5573;49.592;8.662;2023-05-28T03:35:17;56.67;;;53.53;;
11039;SDS011;5573;49.592;8.662;2023-05-28T03:37:46;65.47;;;61.80;;
11039;SDS011;5573;49.592;8.662;2023-05-28T03:40:17;65.60;;;61.77;;
11039;SDS011;5573;49.592;8.662;2023-05-28T03:42:46;61.90;;;58.33;;
11039;SDS011;5573;49.592;8.662;2023-05-28T03:45:15;71.70;;;67.73;;
11039;SDS011;5573;49.592;8.662;2023-05-28T03:47:43;73.07;;;68.97;;
11039;SDS011;5573;49.592;8.662;2023-05-28T03:50:11;66.10;;;62.40;;
11039;SDS011;5573;49.592;8.662;2023-05-28T03:52:39;68.40;;;64.43;;
11039;SDS011;5573;49.592;8.662;2023-05-28T03:55:07;67.37;;;63.53;;
11039;SDS011;5573;49.592;8.662;2023-05-28T03:57:40;72.97;;;68.93;;
11039;SDS011;5573;49.592;8.662;2023-05-28T04:00:08;64.30;;;60.70;;
11039;SDS011;5573;49.592;8.662;2023-05-28T04:02:42;65.40;;;61.87;;
11039;SDS011;5573;49.592;8.662;2023-05-28T04:05:10;70.23;;;66.33;;
11039;SDS011;5573;49.592;8.662;2023-05-28T04:07:38;68.43;;;64.63;;
11039;SDS011;5573;49.592;8.662;2023-05-28T04:10:06;72.03;;;68.00;;
11039;SDS011;5573;49.592;8.662;2023-05-28T04:12:35;66.97;;;63.17;;
11039;SDS011;5573;49.592;8.662;2023-05-28T04:15:05;72.17;;;67.97;;
11039;SDS011;5573;49.592;8.662;2023-05-28T04:17:35;65.23;;;61.73;;
11039;SDS011;5573;49.592;8.662;2023-05-28T04:20:03;64.73;;;61.20;;
11039;SDS011;5573;49.592;8.662;2023-05-28T04:22:33;71.07;;;67.07;;
11039;SDS011;5573;49.592;8.662;2023-05-28T04:25:01;76.80;;;72.43;;
11039;SDS011;5573;49.592;8.662;2023-05-28T04:27:29;76.50;;;72.37;;
11039;SDS011;5573;49.592;8.662;2023-05-28T04:29:57;79.57;;;75.30;;
11039;SDS011;5573;49.592;8.662;2023-05-28T04:32:26;76.43;;;72.25;;
11039;SDS011;5573;49.592;8.662;2023-05-28T04:34:59;76.47;;;72.23;;
11039;SDS011;5573;49.592;8.662;2023-05-28T04:37:30;71.20;;;67.28;;
11039;SDS011;5573;49.592;8.662;2023-05-28T04:40:00;71.10;;;67.37;;
11039;SDS011;5573;49.592;8.662;2023-05-28T04:42:28;75.43;;;71.38;;
11039;SDS011;5573;49.592;8.662;2023-05-28T04:44:56;70.85;;;67.00;;
11039;SDS011;5573;49.592;8.662;2023-05-28T04:47:24;72.87;;;68.97;;
11039;SDS011;5573;49.592;8.662;2023-05-28T04:49:53;85.45;;;80.80;;
11039;SDS011;5573;49.592;8.662;2023-05-28T04:52:23;78.18;;;73.85;;
11039;SDS011;5573;49.592;8.662;2023-05-28T04:54:51;90.18;;;85.25;;
11039;SDS011;5573;49.592;8.662;2023-05-28T04:57:20;75.18;;;71.15;;
11039;SDS011;5573;49.592;8.662;2023-05-28T04:59:49;73.70;;;69.63;;
11039;SDS011;5573;49.592;8.662;2023-05-28T05:02:17;72.50;;;68.50;;
11039;SDS011;5573;49.592;8.662;2023-05-28T05:04:47;80.28;;;75.95;;
11039;SDS011;5573;49.592;8.662;2023-05-28T05:07:18;79.45;;;75.13;;
11039;SDS011;5573;49.592;8.662;2023-05-28T05:09:47;78.68;;;74.40;;
11039;SDS011;5573;49.592;8.662;2023-05-28T05:12:15;82.05;;;77.53;;
11039;SDS011;5573;49.592;8.662;2023-05-28T05:14:43;82.63;;;78.13;;
11039;SDS011;5573;49.592;8.662;2023-05-28T05:17:11;83.22;;;78.72;;
11039;SDS011;5573;49.592;8.662;2023-05-28T05:19:39;84.45;;;79.82;;
11039;SDS011;5573;49.592;8.662;2023-05-28T05:22:07;78.25;;;74.05;;
11039;SDS011;5573;49.592;8.662;2023-05-28T05:24:38;92.38;;;87.28;;
11039;SDS011;5573;49.592;8.662;2023-05-28T05:27:06;91.53;;;86.45;;
11039;SDS011;5573;49.592;8.662;2023-05-28T05:29:34;98.03;;;92.78;;
11039;SDS011;5573;49.592;8.662;2023-05-28T05:32:02;98.95;;;93.60;;
11039;SDS011;5573;49.592;8.662;2023-05-28T05:34:30;102.40;;;96.80;;
11039;SDS011;5573;49.592;8.662;2023-05-28T05:37:20;105.63;;;99.93;;
11039;SDS011;5573;49.592;8.662;2023-05-28T05:40:06;102.57;;;97.15;;
11039;SDS011;5573;49.592;8.662;2023-05-28T05:42:49;104.90;;;99.30;;
11039;SDS011;5573;49.592;8.662;2023-05-28T05:45:18;102.18;;;96.68;;
11039;SDS011;5573;49.592;8.662;2023-05-28T05:47:46;99.05;;;93.70;;
11039;SDS011;5573;49.592;8.662;2023-05-28T05:50:14;111.03;;;105.07;;
11039;SDS011;5573;49.592;8.662;2023-05-28T05:52:43;114.18;;;108.07;;
11039;SDS011;5573;49.592;8.662;2023-05-28T05:55:12;111.03;;;105.00;;
11039;SDS011;5573;49.592;8.662;2023-05-28T05:57:41;117.07;;;110.78;;
11039;SDS011;5573;49.592;8.662;2023-05-28T06:00:10;114.43;;;108.13;;
11039;SDS011;5573;49.592;8.662;2023-05-28T06:02:39;115.47;;;109.13;;
11039;SDS011;5573;49.592;8.662;2023-05-28T06:05:26;111.72;;;105.53;;
11039;SDS011;5573;49.592;8.662;2023-05-28T06:08:03;118.28;;;111.70;;
11039;SDS011;5573;49.592;8.662;2023-05-28T06:10:41;100.47;;;94.93;;
11039;SDS011;5573;49.592;8.662;2023-05-28T06:13:09;102.22;;;96.47;;
11039;SDS011;5573;49.592;8.662;2023-05-28T06:15:38;106.68;;;100.80;;
11039;SDS011;5573;49.592;8.662;2023-05-28T06:18:08;115.50;;;108.90;;
11039;SDS011;5573;49.592;8.662;2023-05-28T06:20:36;119.13;;;112.28;;
11039;SDS011;5573;49.592;8.662;2023-05-28T06:23:05;108.22;;;101.93;;
11039;SDS011;5573;49.592;8.662;2023-05-28T06:25:33;118.78;;;111.85;;
11039;SDS011;5573;49.592;8.662;2023-05-28T06:28:03;118.22;;;111.28;;
11039;SDS011;5573;49.592;8.662;2023-05-28T06:30:31;108.13;;;101.65;;
11039;SDS011;5573;49.592;8.662;2023-05-28T06:32:59;114.78;;;107.97;;
11039;SDS011;5573;49.592;8.662;2023-05-28T06:35:28;115.88;;;109.05;;
11039;SDS011;5573;49.592;8.662;2023-05-28T06:37:56;110.28;;;103.82;;
11039;SDS011;5573;49.592;8.662;2023-05-28T06:40:24;114.15;;;107.00;;
11039;SDS011;5573;49.592;8.662;2023-05-28T06:42:52;117.65;;;110.43;;
11039;SDS011;5573;49.592;8.662;2023-05-28T06:45:34;122.03;;;114.55;;
11039;SDS011;5573;49.592;8.662;2023-05-28T06:48:02;121.93;;;114.53;;
11039;SDS011;5573;49.592;8.662;2023-05-28T06:50:32;128.40;;;120.60;;
11039;SDS011;5573;49.592;8.662;2023-05-28T06:53:01;130.30;;;122.63;;
11039;SDS011;5573;49.592;8.662;2023-05-28T06:55:29;153.63;;;144.63;;
11039;SDS011;5573;49.592;8.662;2023-05-28T06:58:20;155.48;;;146.57;;
11039;SDS011;5573;49.592;8.662;2023-05-28T07:01:07;176.23;;;166.57;;
11039;SDS011;5573;49.592;8.662;2023-05-28T07:03:54;190.10;;;179.70;;
11039;SDS011;5573;49.592;8.662;2023-05-28T07:06:32;219.80;;;207.88;;
11039;SDS011;5573;49.592;8.662;2023-05-28T07:09:00;247.27;;;233.65;;
11039;SDS011;5573;49.592;8.662;2023-05-28T07:11:28;270.65;;;255.80;;
11039;SDS011;5573;49.592;8.662;2023-05-28T07:13:56;260.63;;;246.23;;
11039;SDS011;5573;49.592;8.662;2023-05-28T07:16:26;303.13;;;286.27;;
11039;SDS011;5573;49.592;8.662;2023-05-28T07:18:54;305.38;;;287.88;;
11039;SDS011;5573;49.592;8.662;2023-05-28T07:21:24;308.48;;;291.60;;
11039;SDS011;5573;49.592;8.662;2023-05-28T07:23:52;357.65;;;337.30;;
11039;SDS011;5573;49.592;8.662;2023-05-28T07:26:23;373.10;;;351.30;;
11039;SDS011;5573;49.592;8.662;2023-05-28T07:28:52;394.30;;;372.10;;
11039;SDS011;5573;49.592;8.662;2023-05-28T07:31:20;417.13;;;393.10;;
11039;SDS011;5573;49.592;8.662;2023-05-28T07:33:52;420.23;;;395.92;;
11039;SDS011;5573;49.592;8.662;2023-05-28T07:36:21;404.48;;;381.13;;
11039;SDS011;5573;49.592;8.662;2023-05-28T07:38:49;401.42;;;377.95;;
11039;SDS011;5573;49.592;8.662;2023-05-28T07:41:18;392.42;;;369.33;;
11039;SDS011;5573;49.592;8.662;2023-05-28T07:43:53;409.95;;;386.13;;
11039;SDS011;5573;49.592;8.662;2023-05-28T07:46:25;414.77;;;390.70;;
11039;SDS011;5573;49.592;8.662;2023-05-28T07:49:13;409.42;;;386.17;;
11039;SDS011;5573;49.592;8.662;2023-05-28T07:51:46;401.65;;;378.08;;
11039;SDS011;5573;49.592;8.662;2023-05-28T07:54:24;409.77;;;385.20;;
11039;SDS011;5573;49.592;8.662;2023-05-28T07:56:52;399.95;;;376.35;;
11039;SDS011;5573;49.592;8.662;2023-05-28T07:59:33;415.75;;;391.65;;
11039;SDS011;5573;49.592;8.662;2023-05-28T08:02:03;401.92;;;378.55;;
11039;SDS011;5573;49.592;8.662;2023-05-28T08:04:32;413.60;;;389.13;;
11039;SDS011;5573;49.592;8.662;2023-05-28T08:07:00;419.27;;;394.52;;
11039;SDS011;5573;49.592;8.662;2023-05-28T08:09:28;427.10;;;401.77;;
11039;SDS011;5573;49.592;8.662;2023-05-28T08:11:58;424.13;;;400.10;;
11039;SDS011;5573;49.592;8.662;2023-05-28T08:14:30;430.55;;;406.52;;
11039;SDS011;5573;49.592;8.662;2023-05-28T08:17:03;406.42;;;383.73;;
11039;SDS011;5573;49.592;8.662;2023-05-28T08:19:39;385.25;;;364.23;;
11039;SDS011;5573;49.592;8.662;2023-05-28T08:22:28;343.00;;;324.17;;
11039;SDS011;5573;49.592;8.662;2023-05-28T08:24:55;331.50;;;313.52;;
11039;SDS011;5573;49.592;8.662;2023-05-28T08:27:24;298.50;;;281.98;;
11039;SDS011;5573;49.592;8.662;2023-05-28T08:29:52;311.48;;;294.17;;
11039;SDS011;5573;49.592;8.662;2023-05-28T08:32:21;301.40;;;284.50;;
11039;SDS011;5573;49.592;8.662;2023-05-28T08:34:50;286.38;;;270.73;;
11039;SDS011;5573;49.592;8.662;2023-05-28T08:37:19;276.48;;;261.10;;
11039;SDS011;5573;49.592;8.662;2023-05-28T08:39:59;259.90;;;245.35;;
11039;SDS011;5573;49.592;8.662;2023-05-28T08:42:28;266.50;;;251.60;;
11039;SDS011;5573;49.592;8.662;2023-05-28T08:44:55;274.20;;;258.70;;
11039;SDS011;5573;49.592;8.662;2023-05-28T08:47:26;283.02;;;266.92;;
11039;SDS011;5573;49.592;8.662;2023-05-28T08:50:03;262.30;;;247.48;;
11039;SDS011;5573;49.592;8.662;2023-05-28T08:52:42;261.80;;;246.82;;
11039;SDS011;5573;49.592;8.662;2023-05-28T08:55:12;263.90;;;249.40;;
11039;SDS011;5573;49.592;8.662;2023-05-28T08:57:46;273.50;;;257.92;;
11039;SDS011;5573;49.592;8.662;2023-05-28T09:00:16;263.17;;;248.25;;
11039;SDS011;5573;49.592;8.662;2023-05-28T09:03:11;260.63;;;246.13;;
11039;SDS011;5573;49.592;8.662;2023-05-28T09:05:40;274.90;;;259.38;;
11039;SDS011;5573;49.592;8.662;2023-05-28T09:08:10;274.27;;;258.67;;
11039;SDS011;5573;49.592;8.662;2023-05-28T09:10:38;264.67;;;249.82;;
11039;SDS011;5573;49.592;8.662;2023-05-28T09:13:08;275.70;;;259.92;;
11039;SDS011;5573;49.592;8.662;2023-05-28T09:15:36;280.25;;;264.67;;
11039;SDS011;5573;49.592;8.662;2023-05-28T09:18:09;264.95;;;249.98;;
11039;SDS011;5573;49.592;8.662;2023-05-28T09:20:38;278.52;;;262.98;;
11039;SDS011;5573;49.592;8.662;2023-05-28T09:23:07;287.95;;;271.42;;
11039;SDS011;5573;49.592;8.662;2023-05-28T09:26:01;270.83;;;255.52;;
11039;SDS011;5573;49.592;8.662;2023-05-28T09:28:40;278.42;;;263.10;;
11039;SDS011;5573;49.592;8.662;2023-05-28T09:31:10;294.17;;;277.73;;
11039;SDS011;5573;49.592;8.662;2023-05-28T09:33:40;289.08;;;273.00;;
11039;SDS011;5573;49.592;8.662;2023-05-28T09:36:10;278.90;;;263.17;;
11039;SDS011;5573;49.592;8.662;2023-05-28T09:38:39;299.20;;;282.33;;
11039;SDS011;5573;49.592;8.662;2023-05-28T09:41:17;286.95;;;270.73;;
11039;SDS011;5573;49.592;8.662;2023-05-28T09:43:47;276.17;;;260.65;;
11039;SDS011;5573;49.592;8.662;2023-05-28T09:46:27;292.40;;;276.02;;
11039;SDS011;5573;49.592;8.662;2023-05-28T09:48:57;297.88;;;281.15;;
11039;SDS011;5573;49.592;8.662;2023-05-28T09:51:25;302.75;;;285.65;;
11039;SDS011;5573;49.592;8.662;2023-05-28T09:53:57;300.45;;;284.02;;
11039;SDS011;5573;49.592;8.662;2023-05-28T09:56:27;302.27;;;285.23;;
11039;SDS011;5573;49.592;8.662;2023-05-28T09:59:00;292.42;;;276.33;;
11039;SDS011;5573;49.592;8.662;2023-05-28T10:01:29;296.70;;;280.13;;
11039;SDS011;5573;49.592;8.662;2023-05-28T10:04:01;301.10;;;284.55;;
11039;SDS011;5573;49.592;8.662;2023-05-28T10:06:32;296.52;;;279.75;;
11039;SDS011;5573;49.592;8.662;2023-05-28T10:09:03;300.92;;;283.85;;
11039;SDS011;5573;49.592;8.662;2023-05-28T10:11:34;291.02;;;274.65;;
11039;SDS011;5573;49.592;8.662;2023-05-28T10:14:05;297.90;;;281.50;;
11039;SDS011;5573;49.592;8.662;2023-05-28T10:16:35;309.65;;;292.27;;
11039;SDS011;5573;49.592;8.662;2023-05-28T10:19:03;310.52;;;293.00;;
11039;SDS011;5573;49.592;8.662;2023-05-28T10:21:31;308.17;;;290.63;;
11039;SDS011;5573;49.592;8.662;2023-05-28T10:23:59;302.52;;;285.80;;
11039;SDS011;5573;49.592;8.662;2023-05-28T10:26:29;337.75;;;319.25;;
11039;SDS011;5573;49.592;8.662;2023-05-28T10:28:57;338.73;;;320.33;;
11039;SDS011;5573;49.592;8.662;2023-05-28T10:31:26;348.73;;;329.42;;
11039;SDS011;5573;49.592;8.662;2023-05-28T10:33:54;343.92;;;325.58;;
11039;SDS011;5573;49.592;8.662;2023-05-28T10:36:23;363.77;;;343.95;;
11039;SDS011;5573;49.592;8.662;2023-05-28T10:38:56;367.48;;;347.75;;
11039;SDS011;5573;49.592;8.662;2023-05-28T10:41:26;352.75;;;333.65;;
11039;SDS011;5573;49.592;8.662;2023-05-28T10:44:04;344.70;;;326.13;;
11039;SDS011;5573;49.592;8.662;2023-05-28T10:46:36;358.90;;;339.23;;
11039;SDS011;5573;49.592;8.662;2023-05-28T10:49:06;360.95;;;341.10;;
11039;SDS011;5573;49.592;8.662;2023-05-28T10:51:44;364.58;;;344.58;;
11039;SDS011;5573;49.592;8.662;2023-05-28T10:54:14;399.48;;;377.45;;
11039;SDS011;5573;49.592;8.662;2023-05-28T10:59:43;384.38;;;363.58;;
11039;SDS011;5573;49.592;8.662;2023-05-28T11:02:12;382.63;;;361.30;;
11039;SDS011;5573;49.592;8.662;2023-05-28T11:04:43;367.80;;;347.77;;
11039;SDS011;5573;49.592;8.662;2023-05-28T11:07:12;382.65;;;361.77;;
11039;SDS011;5573;49.592;8.662;2023-05-28T11:09:40;381.48;;;361.00;;
11039;SDS011;5573;49.592;8.662;2023-05-28T11:12:08;381.75;;;360.75;;
11039;SDS011;5573;49.592;8.662;2023-05-28T11:14:38;389.35;;;368.00;;
11039;SDS011;5573;49.592;8.662;2023-05-28T11:17:06;380.45;;;360.10;;
11039;SDS011;5573;49.592;8.662;2023-05-28T11:19:39;388.35;;;367.10;;
11039;SDS011;5573;49.592;8.662;2023-05-28T11:22:08;393.00;;;371.42;;
11039;SDS011;5573;49.592;8.662;2023-05-28T11:24:52;418.17;;;395.23;;
11039;SDS011;5573;49.592;8.662;2023-05-28T11:27:25;392.20;;;370.52;;
11039;SDS011;5573;49.592;8.662;2023-05-28T11:29:56;405.30;;;383.08;;
11039;SDS011;5573;49.592;8.662;2023-05-28T11:32:26;399.23;;;377.58;;
11039;SDS011;5573;49.592;8.662;2023-05-28T11:34:55;385.33;;;363.45;;
11039;SDS011;5573;49.592;8.662;2023-05-28T11:37:23;388.92;;;367.60;;
11039;SDS011;5573;49.592;8.662;2023-05-28T11:39:54;413.00;;;390.80;;
11039;SDS011;5573;49.592;8.662;2023-05-28T11:42:23;392.63;;;371.23;;
11039;SDS011;5573;49.592;8.662;2023-05-28T11:44:52;408.75;;;385.90;;
11039;SDS011;5573;49.592;8.662;2023-05-28T11:47:22;408.77;;;386.17;;
11039;SDS011;5573;49.592;8.662;2023-05-28T11:49:53;415.45;;;392.60;;
11039;SDS011;5573;49.592;8.662;2023-05-28T11:52:22;416.50;;;393.67;;
11039;SDS011;5573;49.592;8.662;2023-05-28T11:54:53;409.73;;;386.70;;
11039;SDS011;5573;49.592;8.662;2023-05-28T11:57:22;408.13;;;385.00;;
11039;SDS011;5573;49.592;8.662;2023-05-28T11:59:57;411.35;;;388.50;;
11039;SDS011;5573;49.592;8.662;2023-05-28T12:02:28;412.85;;;389.45;;
11039;SDS011;5573;49.592;8.662;2023-05-28T12:04:56;441.42;;;416.65;;
11039;SDS011;5573;49.592;8.662;2023-05-28T12:07:28;413.63;;;390.55;;
11039;SDS011;5573;49.592;8.662;2023-05-28T12:10:03;419.42;;;396.38;;
11039;SDS011;5573;49.592;8.662;2023-05-28T12:12:32;414.90;;;392.00;;
11039;SDS011;5573;49.592;8.662;2023-05-28T12:15:02;426.73;;;402.60;;
11039;SDS011;5573;49.592;8.662;2023-05-28T12:17:35;440.77;;;416.13;;
11039;SDS011;5573;49.592;8.662;2023-05-28T12:20:05;442.38;;;417.73;;
11039;SDS011;5573;49.592;8.662;2023-05-28T12:22:35;436.58;;;412.40;;
11039;SDS011;5573;49.592;8.662;2023-05-28T12:25:03;435.98;;;411.58;;
11039;SDS011;5573;49.592;8.662;2023-05-28T12:27:31;421.52;;;398.05;;
11039;SDS011;5573;49.592;8.662;2023-05-28T12:29:59;442.48;;;417.77;;
11039;SDS011;5573;49.592;8.662;2023-05-28T12:32:27;428.80;;;404.60;;
11039;SDS011;5573;49.592;8.662;2023-05-28T12:34:56;432.08;;;407.85;;
11039;SDS011;5573;49.592;8.662;2023-05-28T12:37:28;433.70;;;409.48;;
11039;SDS011;5573;49.592;8.662;2023-05-28T12:39:56;435.40;;;410.95;;
11039;SDS011;5573;49.592;8.662;2023-05-28T12:42:24;440.25;;;415.35;;
11039;SDS011;5573;49.592;8.662;2023-05-28T12:44:52;428.67;;;404.45;;
11039;SDS011;5573;49.592;8.662;2023-05-28T12:47:20;462.70;;;436.90;;
11039;SDS011;5573;49.592;8.662;2023-05-28T12:49:48;449.08;;;424.02;;
11039;SDS011;5573;49.592;8.662;2023-05-28T12:52:17;426.42;;;402.50;;
11039;SDS011;5573;49.592;8.662;2023-05-28T12:54:45;438.30;;;414.35;;
11039;SDS011;5573;49.592;8.662;2023-05-28T12:57:13;444.38;;;419.27;;
11039;SDS011;5573;49.592;8.662;2023-05-28T12:59:41;438.35;;;413.63;;
11039;SDS011;5573;49.592;8.662;2023-05-28T13:02:09;436.85;;;412.27;;
11039;SDS011;5573;49.592;8.662;2023-05-28T13:04:37;435.00;;;410.98;;
11039;SDS011;5573;49.592;8.662;2023-05-28T13:07:05;429.33;;;405.58;;
11039;SDS011;5573;49.592;8.662;2023-05-28T13:09:36;440.73;;;416.00;;
11039;SDS011;5573;49.592;8.662;2023-05-28T13:12:04;425.52;;;401.48;;
11039;SDS011;5573;49.592;8.662;2023-05-28T13:14:32;437.00;;;412.85;;
11039;SDS011;5573;49.592;8.662;2023-05-28T13:17:00;454.70;;;428.52;;
11039;SDS011;5573;49.592;8.662;2023-05-28T13:19:29;439.73;;;414.75;;
11039;SDS011;5573;49.592;8.662;2023-05-28T13:21:57;433.60;;;409.98;;
11039;SDS011;5573;49.592;8.662;2023-05-28T13:24:26;442.75;;;418.20;;
11039;SDS011;5573;49.592;8.662;2023-05-28T13:27:12;433.17;;;408.88;;
11039;SDS011;5573;49.592;8.662;2023-05-28T13:29:41;444.70;;;419.77;;
11039;SDS011;5573;49.592;8.662;2023-05-28T13:32:08;449.20;;;424.10;;
11039;SDS011;5573;49.592;8.662;2023-05-28T13:34:37;436.77;;;412.33;;
11039;SDS011;5573;49.592;8.662;2023-05-28T13:37:05;438.67;;;413.98;;
11039;SDS011;5573;49.592;8.662;2023-05-28T13:39:34;436.60;;;411.88;;
11039;SDS011;5573;49.592;8.662;2023-05-28T13:42:01;457.45;;;432.13;;
11039;SDS011;5573;49.592;8.662;2023-05-28T13:44:31;438.15;;;413.83;;
11039;SDS011;5573;49.592;8.662;2023-05-28T13:46:59;431.42;;;407.40;;
11039;SDS011;5573;49.592;8.662;2023-05-28T13:49:28;432.17;;;408.10;;
11039;SDS011;5573;49.592;8.662;2023-05-28T13:51:56;433.35;;;409.23;;
11039;SDS011;5573;49.592;8.662;2023-05-28T13:54:24;445.13;;;420.58;;
11039;SDS011;5573;49.592;8.662;2023-05-28T13:56:52;431.67;;;407.63;;
11039;SDS011;5573;49.592;8.662;2023-05-28T13:59:20;442.67;;;418.23;;
11039;SDS011;5573;49.592;8.662;2023-05-28T14:01:49;445.50;;;420.23;;
11039;SDS011;5573;49.592;8.662;2023-05-28T14:04:17;447.05;;;422.42;;
11039;SDS011;5573;49.592;8.662;2023-05-28T14:06:45;442.45;;;418.23;;
11039;SDS011;5573;49.592;8.662;2023-05-28T14:09:13;442.70;;;418.20;;
11039;SDS011;5573;49.592;8.662;2023-05-28T14:11:41;460.85;;;435.70;;
11039;SDS011;5573;49.592;8.662;2023-05-28T14:14:29;435.98;;;411.17;;
11039;SDS011;5573;49.592;8.662;2023-05-28T14:16:58;439.63;;;414.75;;
11039;SDS011;5573;49.592;8.662;2023-05-28T14:19:26;431.20;;;407.77;;
11039;SDS011;5573;49.592;8.662;2023-05-28T14:21:54;444.70;;;419.67;;
11039;SDS011;5573;49.592;8.662;2023-05-28T14:24:22;447.92;;;422.63;;
11039;SDS011;5573;49.592;8.662;2023-05-28T14:26:50;450.23;;;425.25;;
11039;SDS011;5573;49.592;8.662;2023-05-28T14:29:18;440.90;;;416.35;;
11039;SDS011;5573;49.592;8.662;2023-05-28T14:31:45;434.85;;;410.42;;
11039;SDS011;5573;49.592;8.662;2023-05-28T14:34:15;433.85;;;409.50;;